Terminal Aerodrome Forecast
Issued by NWS Northern Indiana

Home | Current Version | Previous Version | Graphics & Text | Print | Product List | Glossary On
Versions: 1 2 3 4 5 6 7 8 9 10 11 12 13 14 15 16
064
FTUS43 KIWX 271120
TAFFWA
TAF
KFWA 271120Z 2712/2812 23006KT P6SM BKN010
     FM271600 22006KT P6SM BKN025
     FM272000 17007KT P6SM VCSH OVC030
     FM272200 14007KT P6SM SHRA OVC040
     FM280000 09005KT 5SM SHRA VCTS OVC025CB
     FM280300 06005KT 2SM SHRA VCTS OVC015CB
     FM280600 03005KT P6SM OVC008
     FM280800 02006KT P6SM OVC003=

USA.gov is the U.S. government's official web portal to all federal, state and local government web resources and services.